Time;durP1;ratioP1;P1;durP2;ratioP2;P2;SDS_P1;SDS_P2;PMS_P1;PMS_P2;Temp;Humidity;BMP_temperature;BMP_pressure;BME280_temperature;BME280_humidity;BME280_pressure;Samples;Min_cycle;Max_cycle;Signal;HPM_P1;HPM_P2
2022/06/30 00:00:16;;;;;;;7.20;6.50;;;21.50;99.90;;;;;;6055393;23;20443;-78
2022/06/30 00:02:43;;;;;;;6.70;6.20;;;21.40;99.90;;;;;;6058580;23;20447;-78
2022/06/30 00:05:10;;;;;;;6.23;5.70;;;21.30;99.90;;;;;;6060492;23;20533;-78
2022/06/30 00:07:38;;;;;;;5.67;5.30;;;21.20;99.90;;;;;;6060942;23;20801;-78
2022/06/30 00:10:10;;;;;;;7.10;6.43;;;21.10;99.90;;;;;;6061002;23;20479;-78
2022/06/30 00:12:37;;;;;;;7.33;6.73;;;21.00;99.90;;;;;;6060469;23;20467;-78
2022/06/30 00:15:05;;;;;;;6.27;5.77;;;20.90;99.90;;;;;;6060401;23;20439;-78
2022/06/30 00:17:32;;;;;;;8.03;7.23;;;20.80;99.90;;;;;;6060542;23;20478;-78
2022/06/30 00:19:59;;;;;;;9.30;8.63;;;20.70;99.90;;;;;;6061267;23;20969;-77
2022/06/30 00:22:26;;;;;;;8.57;7.87;;;20.60;99.90;;;;;;6060744;23;20813;-78
2022/06/30 00:24:54;;;;;;;8.47;7.70;;;20.60;99.90;;;;;;6059339;23;20439;-78
2022/06/30 00:27:21;;;;;;;8.40;7.70;;;20.60;99.90;;;;;;6061570;23;20522;-78
2022/06/30 00:29:48;;;;;;;7.90;7.20;;;20.50;99.90;;;;;;6059497;23;20535;-78
2022/06/30 00:32:15;;;;;;;9.77;9.00;;;20.50;99.90;;;;;;6062213;23;20443;-78
2022/06/30 00:34:43;;;;;;;9.37;8.20;;;20.30;99.90;;;;;;6058982;23;20443;-78
2022/06/30 00:37:10;;;;;;;8.23;7.67;;;20.20;99.90;;;;;;6061321;23;20542;-77
2022/06/30 00:39:37;;;;;;;8.67;7.93;;;20.20;99.90;;;;;;6060238;23;20443;-78
2022/06/30 00:42:07;;;;;;;8.77;8.07;;;20.10;99.90;;;;;;6060955;23;20447;-78
2022/06/30 00:44:34;;;;;;;8.70;7.90;;;20.20;99.90;;;;;;6058782;23;20843;-78
2022/06/30 00:47:01;;;;;;;8.97;8.27;;;20.20;99.90;;;;;;6046428;23;20444;-78
2022/06/30 00:49:29;;;;;;;8.33;7.83;;;20.20;99.90;;;;;;6060571;23;20461;-77
2022/06/30 00:51:56;;;;;;;8.93;8.13;;;20.10;99.90;;;;;;6036838;23;20909;-78
2022/06/30 00:54:24;;;;;;;9.80;9.03;;;20.10;99.90;;;;;;6066428;23;20454;-78
2022/06/30 00:56:55;;;;;;;9.30;8.60;;;20.00;99.90;;;;;;6065923;23;20470;-77
2022/06/30 00:59:23;;;;;;;11.40;10.60;;;20.00;99.90;;;;;;6065024;23;20486;-78
2022/06/30 01:01:51;;;;;;;11.73;10.83;;;19.90;99.90;;;;;;6060634;23;20912;-78
2022/06/30 01:04:19;;;;;;;11.60;10.63;;;19.80;99.90;;;;;;6061358;23;20431;-77
2022/06/30 01:06:47;;;;;;;10.80;10.10;;;19.80;99.90;;;;;;6070070;23;20454;-77
2022/06/30 01:12:41;;;;;;;11.40;10.60;;;19.80;99.90;;;;;;6064813;23;21092;-77
2022/06/30 01:14:50;;;;;;;11.90;11.10;;;19.80;99.90;;;;;;6050472;23;20496;-78
2022/06/30 01:17:17;;;;;;;11.80;10.90;;;19.70;99.90;;;;;;6061947;23;20977;-78
2022/06/30 01:19:54;;;;;;;12.10;11.30;;;19.60;99.90;;;;;;6061468;23;20996;-78
2022/06/30 01:22:22;;;;;;;12.13;11.13;;;19.60;99.90;;;;;;6062177;23;20442;-78
2022/06/30 01:24:50;;;;;;;11.47;10.67;;;19.50;99.90;;;;;;6061187;23;20459;-78
2022/06/30 01:27:17;;;;;;;10.83;9.93;;;19.40;99.90;;;;;;6060828;23;21001;-78
2022/06/30 01:29:44;;;;;;;11.83;10.83;;;19.40;99.90;;;;;;6059821;23;20445;-78
2022/06/30 01:32:11;;;;;;;11.00;10.20;;;19.30;99.90;;;;;;6062201;23;20519;-78
2022/06/30 01:34:39;;;;;;;11.17;10.20;;;19.30;99.90;;;;;;6062286;23;20466;-78
2022/06/30 01:37:07;;;;;;;11.47;10.67;;;19.30;99.90;;;;;;6059010;23;20467;-78
2022/06/30 01:39:36;;;;;;;10.80;10.10;;;19.30;99.90;;;;;;6059834;23;20451;-78
2022/06/30 01:42:03;;;;;;;10.83;9.93;;;19.20;99.90;;;;;;6061653;23;20831;-78
2022/06/30 01:44:30;;;;;;;10.00;9.30;;;19.20;99.90;;;;;;6060307;23;20443;-78
2022/06/30 01:46:57;;;;;;;11.37;10.60;;;19.10;99.90;;;;;;6061783;23;20447;-78
2022/06/30 01:49:24;;;;;;;10.80;10.00;;;19.10;99.90;;;;;;6060681;23;20447;-77
2022/06/30 01:51:51;;;;;;;11.07;10.27;;;19.00;99.90;;;;;;6061033;23;20456;-77
2022/06/30 01:54:19;;;;;;;11.47;10.63;;;19.00;99.90;;;;;;6056249;23;20460;-78
2022/06/30 01:56:47;;;;;;;11.20;10.40;;;18.90;99.90;;;;;;6056079;23;20444;-78
2022/06/30 01:59:14;;;;;;;12.10;11.17;;;18.90;99.90;;;;;;6061616;23;20549;-78
2022/06/30 02:01:41;;;;;;;11.40;10.60;;;18.80;99.90;;;;;;6060506;23;20451;-78
2022/06/30 02:06:49;;;;;;;13.43;12.20;;;18.80;99.90;;;;;;6046851;23;20968;-78
2022/06/30 02:09:18;;;;;;;13.53;12.27;;;18.70;99.90;;;;;;6061353;23;20927;-78
2022/06/30 02:11:46;;;;;;;15.13;14.00;;;18.70;99.90;;;;;;6059968;23;20486;-78
2022/06/30 02:14:13;;;;;;;14.83;13.80;;;18.70;99.90;;;;;;6059177;23;20439;-78
2022/06/30 02:16:40;;;;;;;13.90;12.63;;;18.70;99.90;;;;;;6060679;23;20732;-78
2022/06/30 02:19:07;;;;;;;14.27;13.27;;;18.70;99.90;;;;;;6060307;23;20490;-78
2022/06/30 02:21:35;;;;;;;15.13;14.00;;;18.70;99.90;;;;;;6063078;23;20435;-78
2022/06/30 02:24:02;;;;;;;14.47;13.47;;;18.70;99.90;;;;;;6057516;23;20444;-78
2022/06/30 02:26:29;;;;;;;15.33;14.30;;;18.70;99.90;;;;;;6060258;23;20525;-78
2022/06/30 02:28:58;;;;;;;15.47;14.27;;;18.70;99.90;;;;;;6075667;23;20530;-80
2022/06/30 02:31:25;;;;;;;16.03;14.93;;;18.60;99.90;;;;;;6071696;23;20802;-80
2022/06/30 02:33:52;;;;;;;16.07;14.97;;;18.60;99.90;;;;;;6091907;23;20868;-80
2022/06/30 02:36:19;;;;;;;15.43;14.23;;;18.60;99.90;;;;;;6101944;23;20917;-81
2022/06/30 02:38:46;;;;;;;14.37;13.37;;;18.70;99.90;;;;;;6084477;23;20531;-81
2022/06/30 02:41:14;;;;;;;14.67;13.73;;;18.60;99.90;;;;;;6061820;23;20473;-81
2022/06/30 02:43:41;;;;;;;15.23;14.13;;;18.50;99.90;;;;;;6078635;23;20546;-80
2022/06/30 02:46:09;;;;;;;16.07;14.83;;;18.60;99.90;;;;;;6074633;23;20966;-80
2022/06/30 02:48:36;;;;;;;14.43;13.27;;;18.60;99.90;;;;;;6065116;23;20466;-80
2022/06/30 02:51:04;;;;;;;16.00;14.70;;;18.60;99.90;;;;;;6069926;23;20929;-80
2022/06/30 02:53:31;;;;;;;15.43;14.23;;;18.50;99.90;;;;;;6090388;23;20445;-80
2022/06/30 02:55:58;;;;;;;16.00;14.83;;;18.50;99.90;;;;;;6065432;23;20447;-81
2022/06/30 02:58:25;;;;;;;16.07;14.83;;;18.50;99.90;;;;;;6080657;23;20470;-80
2022/06/30 03:00:52;;;;;;;18.00;16.70;;;18.40;99.90;;;;;;6065431;23;20444;-80
2022/06/30 03:03:20;;;;;;;17.27;15.97;;;18.40;99.90;;;;;;6061917;23;20538;-80
2022/06/30 03:05:47;;;;;;;15.73;14.63;;;18.40;99.90;;;;;;6062772;23;20466;-80
2022/06/30 03:08:15;;;;;;;16.93;15.47;;;18.40;99.90;;;;;;6070798;23;20486;-80
2022/06/30 03:10:42;;;;;;;16.20;15.10;;;18.50;99.90;;;;;;6083683;23;20488;-80
2022/06/30 03:13:09;;;;;;;16.50;15.23;;;18.50;99.90;;;;;;6073713;23;20857;-80
2022/06/30 03:15:36;;;;;;;14.90;13.90;;;18.50;99.90;;;;;;6061639;23;20447;-80
2022/06/30 03:18:03;;;;;;;16.53;15.37;;;18.50;99.90;;;;;;6065988;23;20482;-80
2022/06/30 03:20:31;;;;;;;17.47;16.07;;;18.50;99.90;;;;;;6062025;23;20522;-80
2022/06/30 03:22:58;;;;;;;16.17;14.83;;;18.50;99.90;;;;;;6061858;23;20443;-80
2022/06/30 03:25:25;;;;;;;17.40;16.10;;;18.50;99.90;;;;;;6067792;23;20449;-80
2022/06/30 03:27:52;;;;;;;17.03;15.60;;;18.50;99.90;;;;;;6073890;23;20566;-81
2022/06/30 03:30:19;;;;;;;16.93;15.60;;;18.50;99.90;;;;;;6073744;23;20445;-80
2022/06/30 03:32:46;;;;;;;17.90;16.70;;;18.50;99.90;;;;;;6080987;23;20442;-80
2022/06/30 03:35:14;;;;;;;18.03;16.50;;;18.50;99.90;;;;;;6072802;23;20439;-81
2022/06/30 03:37:42;;;;;;;16.60;15.30;;;18.40;99.90;;;;;;6062707;23;20534;-81
2022/06/30 03:40:10;;;;;;;16.77;15.57;;;18.50;99.90;;;;;;6065269;23;20519;-81
2022/06/30 03:42:37;;;;;;;17.63;16.40;;;18.50;99.90;;;;;;6073155;23;20511;-79
2022/06/30 03:45:05;;;;;;;15.87;14.77;;;18.40;99.90;;;;;;6063198;23;20848;-77
2022/06/30 03:47:32;;;;;;;16.80;15.53;;;18.40;99.90;;;;;;6069416;23;20505;-77
2022/06/30 03:49:59;;;;;;;16.43;15.30;;;18.40;99.90;;;;;;6061458;23;20447;-77
2022/06/30 03:52:27;;;;;;;16.60;15.40;;;18.40;99.90;;;;;;6084813;23;20438;-77
2022/06/30 03:54:55;;;;;;;16.40;15.13;;;18.50;99.90;;;;;;6062009;23;20455;-77
2022/06/30 03:57:22;;;;;;;16.50;15.00;;;18.50;99.90;;;;;;6059546;23;20471;-77
2022/06/30 03:59:49;;;;;;;16.87;15.67;;;18.60;99.90;;;;;;6083758;23;20829;-77
2022/06/30 04:02:16;;;;;;;15.67;14.27;;;18.50;99.90;;;;;;6080736;23;20434;-77
2022/06/30 04:04:43;;;;;;;16.37;15.17;;;18.50;99.90;;;;;;6089831;23;20443;-77
2022/06/30 04:07:10;;;;;;;14.67;13.43;;;18.50;99.90;;;;;;6067673;23;20469;-77
2022/06/30 04:09:37;;;;;;;16.27;15.07;;;18.60;99.90;;;;;;6075946;23;20447;-77
2022/06/30 04:12:07;;;;;;;18.37;16.97;;;18.60;99.90;;;;;;6071850;23;20453;-77
2022/06/30 04:14:34;;;;;;;17.67;16.47;;;18.60;99.90;;;;;;6090456;23;20443;-77
2022/06/30 04:17:01;;;;;;;18.30;16.97;;;18.50;99.90;;;;;;6065997;23;20481;-76
2022/06/30 04:19:28;;;;;;;17.37;16.00;;;18.60;99.90;;;;;;6071879;23;20475;-76
2022/06/30 04:21:55;;;;;;;19.33;17.90;;;18.50;99.90;;;;;;6066153;23;20513;-77
2022/06/30 04:24:22;;;;;;;20.73;19.03;;;18.50;99.90;;;;;;6069695;23;20505;-77
2022/06/30 04:26:49;;;;;;;19.20;17.80;;;18.40;99.90;;;;;;6072794;23;20554;-78
2022/06/30 04:29:17;;;;;;;21.27;19.57;;;18.40;99.90;;;;;;6069539;23;20937;-77
2022/06/30 04:34:29;;;;;;;21.87;20.07;;;18.40;99.90;;;;;;6060668;23;20442;-78
2022/06/30 04:38:34;;;;;;;20.53;18.60;;;18.40;99.90;;;;;;6126018;22;58351;-77
2022/06/30 04:45:37;;;;;;;20.47;18.83;;;18.40;99.90;;;;;;6209027;22;20885;-77
2022/06/30 04:48:05;;;;;;;18.20;16.63;;;18.40;99.90;;;;;;6046390;23;21365;-83
2022/06/30 04:50:32;;;;;;;18.80;17.30;;;18.40;99.90;;;;;;6037830;23;20461;-77
2022/06/30 04:53:44;;;;;;;18.57;17.27;;;18.50;99.90;;;;;;6020001;23;20539;-77
2022/06/30 04:56:12;;;;;;;18.03;16.50;;;18.60;99.90;;;;;;6044353;23;20454;-76
2022/06/30 04:58:39;;;;;;;17.90;16.60;;;18.70;99.90;;;;;;6035528;23;20522;-76
2022/06/30 05:01:06;;;;;;;17.10;15.70;;;18.70;99.90;;;;;;6038904;23;20447;-77
2022/06/30 05:03:34;;;;;;;17.87;16.37;;;18.80;99.90;;;;;;6038692;23;21099;-76
2022/06/30 05:06:01;;;;;;;17.30;15.90;;;18.90;99.90;;;;;;6030692;23;20458;-76
2022/06/30 05:08:28;;;;;;;16.60;15.50;;;19.00;99.90;;;;;;6050688;23;20446;-76
2022/06/30 05:10:57;;;;;;;15.70;14.60;;;19.10;99.90;;;;;;6047595;23;20450;-77
2022/06/30 05:13:24;;;;;;;15.23;14.17;;;19.10;99.90;;;;;;6046532;23;20465;-77
2022/06/30 05:15:51;;;;;;;15.30;14.20;;;19.20;99.90;;;;;;6052767;23;20434;-77
2022/06/30 05:18:18;;;;;;;15.53;14.30;;;19.30;99.90;;;;;;6048414;23;20435;-76
2022/06/30 05:20:45;;;;;;;15.43;14.23;;;19.30;99.90;;;;;;6050770;23;20784;-76
2022/06/30 05:23:12;;;;;;;15.03;13.77;;;19.40;99.90;;;;;;6051769;23;20467;-76
2022/06/30 05:28:25;;;;;;;13.90;12.90;;;19.50;99.90;;;;;;6049542;23;20518;-77
2022/06/30 05:30:53;;;;;;;13.73;12.57;;;19.60;99.90;;;;;;6052545;23;20442;-77
2022/06/30 05:33:21;;;;;;;14.87;13.87;;;19.70;99.90;;;;;;6050859;23;20590;-76
2022/06/30 05:35:48;;;;;;;12.90;11.90;;;19.80;99.90;;;;;;6052372;23;20478;-77
2022/06/30 05:38:16;;;;;;;13.30;12.30;;;19.80;99.90;;;;;;6047776;23;20435;-77
2022/06/30 05:40:45;;;;;;;13.83;12.73;;;20.00;99.90;;;;;;6049697;23;20452;-77
2022/06/30 05:43:13;;;;;;;13.50;12.50;;;20.00;99.90;;;;;;6048127;23;20527;-77
2022/06/30 05:45:42;;;;;;;13.23;12.23;;;20.20;99.90;;;;;;6048686;23;20440;-77
2022/06/30 05:48:09;;;;;;;13.60;12.57;;;20.20;99.90;;;;;;6048036;23;20439;-77
2022/06/30 05:50:37;;;;;;;13.03;12.03;;;20.30;99.90;;;;;;6048909;23;20435;-77
2022/06/30 05:53:04;;;;;;;12.87;11.73;;;20.40;99.90;;;;;;6050198;23;21061;-77
2022/06/30 05:55:31;;;;;;;11.63;10.80;;;20.50;99.90;;;;;;6051820;23;21048;-77
2022/06/30 05:58:01;;;;;;;13.20;12.00;;;20.60;99.90;;;;;;6048155;23;20456;-76
2022/06/30 06:00:30;;;;;;;11.80;11.10;;;20.70;99.90;;;;;;6047028;23;20439;-77
2022/06/30 06:02:58;;;;;;;11.60;10.70;;;20.80;99.90;;;;;;6050093;23;20497;-76
2022/06/30 06:05:26;;;;;;;11.17;10.33;;;20.90;99.90;;;;;;6041280;23;20790;-77
2022/06/30 06:07:53;;;;;;;11.90;11.00;;;21.00;99.90;;;;;;6037274;23;20458;-77
2022/06/30 06:10:20;;;;;;;10.93;10.00;;;21.10;99.90;;;;;;6044002;23;20500;-77
2022/06/30 06:12:47;;;;;;;11.50;10.60;;;21.30;99.90;;;;;;6043864;23;20515;-77
2022/06/30 06:15:15;;;;;;;11.53;10.73;;;21.50;99.90;;;;;;6047051;23;20839;-77
2022/06/30 06:17:43;;;;;;;10.53;9.73;;;21.60;99.90;;;;;;6041229;23;20563;-76
2022/06/30 06:20:14;;;;;;;10.67;9.97;;;21.60;99.90;;;;;;6039429;23;20571;-77
2022/06/30 06:22:42;;;;;;;10.80;10.03;;;21.70;99.90;;;;;;6040313;23;20458;-76
2022/06/30 06:25:10;;;;;;;10.80;9.97;;;21.80;99.90;;;;;;6048484;23;20547;-76
2022/06/30 06:27:38;;;;;;;10.03;9.30;;;21.80;99.90;;;;;;6041622;23;20862;-80
2022/06/30 06:30:06;;;;;;;8.70;8.10;;;21.90;99.90;;;;;;6033569;23;20440;-80
2022/06/30 06:32:33;;;;;;;9.57;8.77;;;22.00;99.90;;;;;;6043625;23;20464;-79
2022/06/30 06:35:00;;;;;;;9.40;8.80;;;22.20;99.90;;;;;;6045698;23;20440;-79
2022/06/30 06:37:29;;;;;;;9.50;8.60;;;22.30;99.90;;;;;;6041277;23;20487;-79
2022/06/30 06:39:56;;;;;;;8.40;7.77;;;22.40;99.90;;;;;;6041549;23;20997;-79
2022/06/30 06:42:23;;;;;;;8.83;8.23;;;22.50;99.90;;;;;;6040571;23;20438;-80
2022/06/30 06:44:50;;;;;;;8.33;7.73;;;22.60;99.90;;;;;;6046027;23;20583;-80
2022/06/30 06:47:17;;;;;;;9.07;8.23;;;22.60;99.90;;;;;;6042966;23;20483;-80
2022/06/30 06:49:44;;;;;;;8.47;7.87;;;22.60;99.90;;;;;;6040408;23;20919;-80
2022/06/30 06:52:11;;;;;;;8.00;7.40;;;22.70;99.90;;;;;;6041801;23;21182;-79
2022/06/30 06:54:40;;;;;;;7.73;7.13;;;22.70;99.90;;;;;;6044582;23;20501;-79
2022/06/30 06:57:07;;;;;;;9.40;8.60;;;22.80;99.90;;;;;;6043976;23;20463;-79
2022/06/30 06:59:36;;;;;;;8.07;7.53;;;22.90;99.90;;;;;;6036560;23;20439;-79
2022/06/30 07:02:03;;;;;;;9.10;8.30;;;23.00;99.90;;;;;;6043121;23;20510;-79
2022/06/30 07:04:30;;;;;;;8.77;8.07;;;23.00;99.90;;;;;;6038130;23;20724;-79
2022/06/30 07:06:57;;;;;;;8.53;7.83;;;23.10;99.90;;;;;;6038926;23;21304;-79
2022/06/30 07:09:24;;;;;;;8.07;7.37;;;23.20;99.90;;;;;;6040743;23;20459;-79
2022/06/30 07:11:53;;;;;;;8.37;7.43;;;23.20;99.90;;;;;;6042922;23;20451;-79
2022/06/30 07:14:20;;;;;;;7.00;6.40;;;23.30;99.90;;;;;;6041894;23;20979;-79
2022/06/30 07:16:47;;;;;;;8.13;7.53;;;23.40;99.90;;;;;;6036732;23;20487;-80
2022/06/30 07:19:14;;;;;;;9.00;8.30;;;23.50;99.90;;;;;;6042636;23;20445;-79
2022/06/30 07:21:41;;;;;;;8.37;7.67;;;23.60;99.90;;;;;;6042854;23;20437;-79
2022/06/30 07:24:08;;;;;;;7.40;6.90;;;23.60;99.90;;;;;;6039484;23;20447;-79
2022/06/30 07:26:35;;;;;;;8.30;7.50;;;23.70;99.90;;;;;;6041606;23;20490;-79
2022/06/30 07:29:04;;;;;;;8.10;7.50;;;23.90;99.90;;;;;;6040603;23;20448;-79
2022/06/30 07:31:31;;;;;;;7.33;6.83;;;24.10;99.90;;;;;;6041022;23;20796;-79
2022/06/30 07:33:58;;;;;;;7.37;6.67;;;24.20;99.90;;;;;;6040603;23;20487;-79
2022/06/30 07:36:25;;;;;;;7.10;6.53;;;24.30;99.90;;;;;;6038344;23;20506;-80
2022/06/30 07:38:52;;;;;;;7.27;6.57;;;24.50;99.90;;;;;;6047204;23;20906;-80
2022/06/30 07:41:20;;;;;;;6.70;5.93;;;24.60;99.90;;;;;;6041390;23;20440;-80
2022/06/30 07:43:48;;;;;;;6.77;6.27;;;24.90;99.90;;;;;;6041937;23;20915;-79
2022/06/30 07:46:16;;;;;;;6.50;5.83;;;25.10;99.90;;;;;;6045386;23;20487;-79
2022/06/30 07:48:44;;;;;;;6.07;5.47;;;25.60;99.90;;;;;;6044100;23;20472;-79
2022/06/30 07:51:11;;;;;;;6.60;6.00;;;26.10;99.90;;;;;;6042836;23;20534;-79
2022/06/30 07:53:38;;;;;;;5.60;5.03;;;26.70;99.90;;;;;;6025613;23;20476;-78
2022/06/30 07:56:05;;;;;;;7.80;5.70;;;27.40;99.90;;;;;;6039572;23;20539;-81
2022/06/30 07:58:33;;;;;;;5.03;4.73;;;27.70;99.90;;;;;;6046894;23;20447;-79
2022/06/30 08:01:00;;;;;;;5.37;4.97;;;28.20;99.90;;;;;;6049147;23;20452;-79
2022/06/30 08:03:29;;;;;;;5.43;5.13;;;28.50;99.90;;;;;;6037342;23;20455;-80
2022/06/30 08:05:56;;;;;;;5.80;5.40;;;28.80;99.90;;;;;;6031942;23;20500;-81
2022/06/30 08:08:23;;;;;;;5.20;4.80;;;29.10;99.90;;;;;;6032571;23;20444;-80
2022/06/30 08:10:50;;;;;;;5.77;5.17;;;29.60;99.90;;;;;;6051868;23;20462;-81
2022/06/30 08:13:18;;;;;;;6.03;5.20;;;29.70;99.90;;;;;;6045260;23;20451;-79
2022/06/30 08:15:45;;;;;;;5.73;5.23;;;30.00;99.90;;;;;;6052127;23;20456;-79
2022/06/30 08:18:12;;;;;;;5.53;5.00;;;30.20;99.90;;;;;;6035049;23;20436;-81
2022/06/30 08:20:40;;;;;;;5.00;4.50;;;30.10;99.90;;;;;;6031521;23;20519;-80
2022/06/30 08:23:07;;;;;;;5.40;4.50;;;30.60;99.90;;;;;;6037016;23;20523;-81
2022/06/30 08:25:35;;;;;;;6.30;4.80;;;30.80;99.90;;;;;;6030505;23;20543;-80
2022/06/30 08:28:04;;;;;;;5.67;5.17;;;31.30;99.90;;;;;;6041921;23;20431;-81
2022/06/30 08:30:31;;;;;;;5.27;4.87;;;31.60;99.90;;;;;;6033342;23;20436;-81
2022/06/30 08:32:58;;;;;;;5.10;4.60;;;32.20;99.90;;;;;;6029883;23;20464;-81
2022/06/30 08:35:25;;;;;;;4.83;4.53;;;32.50;99.90;;;;;;6033980;23;20954;-80
2022/06/30 08:37:54;;;;;;;5.37;4.87;;;32.40;99.90;;;;;;6033392;23;20515;-80
2022/06/30 08:43:09;;;;;;;5.20;4.63;;;32.70;99.50;;;;;;6009813;23;20944;-81
2022/06/30 08:45:36;;;;;;;4.77;4.47;;;32.40;99.30;;;;;;6006182;23;20548;-81
2022/06/30 08:48:29;;;;;;;4.87;4.47;;;32.60;99.10;;;;;;6046268;23;20442;-80
2022/06/30 08:51:22;;;;;;;5.43;5.00;;;32.70;98.80;;;;;;6049085;23;20455;-82
2022/06/30 08:53:58;;;;;;;5.20;4.60;;;32.60;98.00;;;;;;6044398;23;20550;-81
2022/06/30 08:56:30;;;;;;;5.40;4.90;;;32.40;98.30;;;;;;6043291;23;20602;-81
2022/06/30 08:58:58;;;;;;;5.70;4.63;;;32.80;98.10;;;;;;6037704;23;20520;-81
2022/06/30 09:01:26;;;;;;;4.90;4.43;;;33.30;97.30;;;;;;6058631;23;20510;-80
2022/06/30 09:03:54;;;;;;;5.50;4.60;;;33.60;96.10;;;;;;6031196;23;20444;-81
2022/06/30 09:06:21;;;;;;;5.30;4.80;;;33.80;95.40;;;;;;6033705;23;20463;-81
2022/06/30 09:08:49;;;;;;;4.60;4.20;;;33.80;95.30;;;;;;6052073;23;20807;-81
2022/06/30 09:11:18;;;;;;;5.03;4.73;;;33.70;94.50;;;;;;6023780;23;20456;-82
2022/06/30 09:13:48;;;;;;;5.10;4.10;;;33.60;94.50;;;;;;6032271;23;20467;-80
2022/06/30 09:16:17;;;;;;;4.70;4.33;;;33.60;94.00;;;;;;6031901;23;20921;-81
2022/06/30 09:18:45;;;;;;;6.40;4.17;;;33.30;93.90;;;;;;6030044;23;20444;-81
2022/06/30 09:21:17;;;;;;;6.40;4.10;;;33.20;93.20;;;;;;6045673;23;20440;-81
2022/06/30 09:23:45;;;;;;;4.43;4.10;;;33.60;93.40;;;;;;6043911;23;20443;-81
2022/06/30 09:26:19;;;;;;;4.63;4.33;;;34.10;91.50;;;;;;6043620;23;20570;-81
2022/06/30 09:28:50;;;;;;;4.53;3.90;;;34.80;91.00;;;;;;6044580;23;20463;-81
2022/06/30 09:31:33;;;;;;;4.17;3.87;;;35.40;88.90;;;;;;6042916;23;20444;-81
2022/06/30 09:34:16;;;;;;;3.60;3.40;;;35.50;86.90;;;;;;6046602;23;20467;-81
2022/06/30 09:36:43;;;;;;;4.43;3.80;;;35.90;87.20;;;;;;6041414;23;20489;-81
2022/06/30 09:39:15;;;;;;;4.30;3.80;;;36.90;83.80;;;;;;6047156;23;20847;-80
2022/06/30 09:41:45;;;;;;;3.70;3.13;;;37.00;79.50;;;;;;6047264;23;20452;-80
2022/06/30 09:44:20;;;;;;;3.80;3.60;;;36.70;80.00;;;;;;6044796;23;20440;-82
2022/06/30 09:46:55;;;;;;;5.27;3.63;;;36.40;77.80;;;;;;6044621;23;20454;-80
2022/06/30 09:49:31;;;;;;;3.93;3.63;;;35.80;76.80;;;;;;6047233;23;20891;-81
2022/06/30 09:51:59;;;;;;;3.80;3.50;;;35.70;77.70;;;;;;5987429;23;50639;-81
2022/06/30 09:54:27;;;;;;;3.73;3.43;;;35.90;78.80;;;;;;6101065;23;20615;-81
2022/06/30 09:57:08;;;;;;;4.13;3.60;;;36.50;76.80;;;;;;6098031;23;20616;-81
2022/06/30 09:59:35;;;;;;;3.90;3.27;;;36.20;76.50;;;;;;6103531;23;20479;-81
2022/06/30 10:02:06;;;;;;;5.10;3.90;;;35.70;76.80;;;;;;6099576;23;20560;-81
2022/06/30 10:04:52;;;;;;;3.90;3.53;;;35.80;75.40;;;;;;6094603;23;20434;-81
2022/06/30 10:07:21;;;;;;;4.57;3.50;;;36.40;75.90;;;;;;6094896;23;20819;-81
2022/06/30 10:09:49;;;;;;;3.87;3.40;;;36.40;72.80;;;;;;6100190;23;20437;-81
2022/06/30 10:12:19;;;;;;;3.77;3.57;;;36.30;71.60;;;;;;6102579;23;20457;-83
2022/06/30 10:14:48;;;;;;;4.20;3.60;;;36.00;73.50;;;;;;6094925;23;20777;-81
2022/06/30 10:17:16;;;;;;;3.87;3.50;;;35.50;73.80;;;;;;6086791;23;20438;-81
2022/06/30 10:19:43;;;;;;;4.23;3.93;;;35.20;74.80;;;;;;6089036;23;20442;-81
2022/06/30 10:22:11;;;;;;;4.03;3.70;;;35.30;77.70;;;;;;6094029;23;20434;-82
2022/06/30 10:24:41;;;;;;;3.60;3.30;;;35.80;74.60;;;;;;6093432;23;20445;-81
2022/06/30 10:27:14;;;;;;;5.03;3.70;;;36.20;74.40;;;;;;6096482;23;20442;-81
2022/06/30 10:29:47;;;;;;;5.10;3.53;;;36.50;73.30;;;;;;6092251;23;20433;-82
2022/06/30 10:32:22;;;;;;;4.57;3.50;;;36.90;70.30;;;;;;6102134;23;20434;-81
2022/06/30 10:34:57;;;;;;;4.90;3.77;;;36.00;70.00;;;;;;6089091;23;20480;-81
2022/06/30 10:37:31;;;;;;;3.97;3.67;;;35.50;70.00;;;;;;6094673;23;20485;-81
2022/06/30 10:40:01;;;;;;;3.73;3.43;;;35.60;72.20;;;;;;6091610;23;20472;-81
2022/06/30 10:42:48;;;;;;;4.60;3.50;;;35.70;72.10;;;;;;6100914;23;20504;-82
2022/06/30 10:45:36;;;;;;;3.60;3.30;;;36.20;69.20;;;;;;6097294;23;20469;-82
2022/06/30 10:48:05;;;;;;;4.23;3.93;;;36.60;68.10;;;;;;6096888;23;20434;-82
2022/06/30 10:50:36;;;;;;;3.30;3.10;;;36.50;67.80;;;;;;6097360;23;20443;-82
2022/06/30 10:53:05;;;;;;;4.60;3.10;;;36.70;70.30;;;;;;6096618;23;20513;-81
2022/06/30 10:55:44;;;;;;;3.40;3.10;;;37.00;66.40;;;;;;6096678;23;20477;-81
2022/06/30 10:58:12;;;;;;;3.23;2.93;;;37.10;66.40;;;;;;6062856;23;20447;-82
2022/06/30 11:00:56;;;;;;;3.57;3.27;;;37.20;66.60;;;;;;6078670;23;20441;-82
2022/06/30 11:03:56;;;;;;;4.90;3.10;;;37.40;64.00;;;;;;6068275;23;20508;-82
2022/06/30 11:06:26;;;;;;;5.03;3.03;;;36.90;62.60;;;;;;6063107;23;20504;-81
2022/06/30 11:08:57;;;;;;;3.00;2.80;;;36.90;62.30;;;;;;6071434;23;20743;-81
2022/06/30 11:11:42;;;;;;;5.93;3.57;;;36.70;64.00;;;;;;6074252;23;20434;-82
2022/06/30 11:14:25;;;;;;;3.67;3.40;;;35.90;65.30;;;;;;6076962;23;22033;-81
2022/06/30 11:16:54;;;;;;;3.30;3.00;;;35.50;64.80;;;;;;6079799;23;21661;-81
2022/06/30 11:19:27;;;;;;;3.67;3.27;;;35.10;65.90;;;;;;6069039;23;20739;-82
2022/06/30 11:21:54;;;;;;;3.40;3.10;;;35.00;65.70;;;;;;6063635;23;20450;-82
2022/06/30 11:24:23;;;;;;;3.37;2.97;;;34.90;65.80;;;;;;6067887;23;21028;-82
2022/06/30 11:29:36;;;;;;;3.53;3.23;;;35.20;66.60;;;;;;6075447;23;20440;-82
2022/06/30 11:32:05;;;;;;;4.40;3.70;;;35.40;65.70;;;;;;6066975;23;20518;-82
2022/06/30 11:34:37;;;;;;;3.80;3.03;;;35.50;66.10;;;;;;6072848;23;20501;-81
2022/06/30 11:37:04;;;;;;;2.97;2.77;;;35.50;65.20;;;;;;6081889;23;20454;-82
2022/06/30 11:39:31;;;;;;;3.20;3.00;;;35.70;63.40;;;;;;6084936;23;20447;-81
2022/06/30 11:42:00;;;;;;;5.20;3.40;;;36.00;64.40;;;;;;6071170;23;20438;-81
2022/06/30 11:44:31;;;;;;;3.90;3.60;;;35.60;63.30;;;;;;6084600;23;20836;-82
2022/06/30 11:47:00;;;;;;;3.53;3.23;;;35.00;65.30;;;;;;6064519;23;20447;-82
2022/06/30 11:49:40;;;;;;;2.80;2.60;;;35.00;66.00;;;;;;6090907;23;20488;-82
2022/06/30 11:52:13;;;;;;;5.17;3.40;;;35.30;67.00;;;;;;6074149;23;20468;-81
2022/06/30 11:54:43;;;;;;;3.47;3.10;;;35.80;64.70;;;;;;6082220;23;20481;-81
2022/06/30 11:57:11;;;;;;;4.77;3.33;;;35.70;63.30;;;;;;6077912;23;20978;-81
2022/06/30 11:59:44;;;;;;;5.93;3.07;;;35.60;62.60;;;;;;6072475;23;20751;-81
2022/06/30 12:02:11;;;;;;;3.73;3.43;;;35.70;64.90;;;;;;6079646;23;20446;-82
2022/06/30 12:04:42;;;;;;;3.27;3.07;;;35.60;63.50;;;;;;6098888;23;20462;-81
2022/06/30 12:07:10;;;;;;;3.50;3.20;;;36.00;63.70;;;;;;6095631;23;20450;-82
2022/06/30 12:09:37;;;;;;;3.73;3.40;;;36.40;64.00;;;;;;6100721;23;20438;-82
2022/06/30 12:12:06;;;;;;;4.13;2.93;;;36.80;60.30;;;;;;6091455;23;20472;-82
2022/06/30 12:14:36;;;;;;;3.20;3.00;;;36.70;60.00;;;;;;6086286;23;20493;-81
2022/06/30 12:17:05;;;;;;;3.80;3.40;;;36.90;59.80;;;;;;6093556;23;20433;-81
2022/06/30 12:19:32;;;;;;;3.27;3.07;;;37.00;60.50;;;;;;6087657;23;20446;-83
2022/06/30 12:22:03;;;;;;;4.60;3.03;;;37.10;60.80;;;;;;6083506;23;20430;-84
2022/06/30 12:24:30;;;;;;;3.53;3.33;;;37.50;62.00;;;;;;6083975;23;20785;-84
2022/06/30 12:27:00;;;;;;;3.50;3.30;;;36.90;59.70;;;;;;6095521;23;20545;-82
2022/06/30 12:29:29;;;;;;;3.50;3.20;;;36.20;61.40;;;;;;6091196;23;20922;-81
2022/06/30 12:32:02;;;;;;;4.50;3.43;;;36.30;60.80;;;;;;6094667;23;20488;-82
2022/06/30 12:34:29;;;;;;;3.73;3.43;;;36.30;60.90;;;;;;6075176;23;20462;-83
2022/06/30 12:37:01;;;;;;;3.97;3.57;;;36.20;60.90;;;;;;6064755;23;20435;-82
2022/06/30 12:39:30;;;;;;;3.37;3.17;;;35.80;60.00;;;;;;6063130;23;20518;-82
2022/06/30 12:42:03;;;;;;;4.07;3.73;;;35.30;61.70;;;;;;6069353;23;20442;-83
2022/06/30 14:27:01;;;;;;;7.03;3.67;;;33.50;57.90;;;;;;6103153;23;20575;-81
2022/06/30 14:29:28;;;;;;;4.37;3.97;;;32.60;59.50;;;;;;6096692;23;20441;-82
2022/06/30 14:31:55;;;;;;;3.97;3.67;;;32.20;61.10;;;;;;6097307;23;20510;-81
2022/06/30 14:34:23;;;;;;;5.20;3.57;;;32.00;62.90;;;;;;6095783;23;20552;-81
2022/06/30 14:36:50;;;;;;;4.27;3.83;;;31.80;64.50;;;;;;6102720;23;20452;-81
2022/06/30 14:39:17;;;;;;;4.30;4.00;;;31.60;65.40;;;;;;6101617;23;20437;-81
2022/06/30 14:44:32;;;;;;;4.70;4.30;;;31.20;65.50;;;;;;6098126;23;20463;-81
2022/06/30 14:46:59;;;;;;;4.40;4.00;;;31.10;66.50;;;;;;6093953;23;20472;-81
2022/06/30 14:49:26;;;;;;;4.20;3.80;;;31.00;66.60;;;;;;6106546;23;20437;-79
2022/06/30 14:51:53;;;;;;;5.33;4.30;;;30.80;67.00;;;;;;6102178;23;20940;-82
2022/06/30 14:54:20;;;;;;;4.10;3.80;;;30.60;68.80;;;;;;6104546;23;20475;-81